createdAt,value
2018-11-28T00:01:50.426Z,39.63
2018-11-28T00:04:24.184Z,38.60
2018-11-28T00:06:52.670Z,39.93
2018-11-28T00:09:21.008Z,40.37
2018-11-28T00:11:49.355Z,42.30
2018-11-28T00:14:17.703Z,43.53
2018-11-28T00:16:46.103Z,38.97
2018-11-28T00:19:14.406Z,42.23
2018-11-28T00:21:42.781Z,44.30
2018-11-28T00:24:11.070Z,39.00
2018-11-28T00:26:39.379Z,41.97
2018-11-28T00:29:07.661Z,39.03
2018-11-28T00:31:36.000Z,41.43
2018-11-28T00:34:04.439Z,39.63
2018-11-28T00:36:32.750Z,41.57
2018-11-28T00:39:01.046Z,41.07
2018-11-28T00:41:29.410Z,40.07
2018-11-28T00:43:57.744Z,43.63
2018-11-28T00:46:26.092Z,39.10
2018-11-28T00:48:54.403Z,38.83
2018-11-28T00:51:22.753Z,36.33
2018-11-28T00:53:51.112Z,41.93
2018-11-28T00:56:19.448Z,40.33
2018-11-28T00:58:47.800Z,40.50
2018-11-28T01:01:16.163Z,38.37
2018-11-28T01:03:44.551Z,42.87
2018-11-28T01:06:12.866Z,37.87
2018-11-28T01:08:41.147Z,37.33
2018-11-28T01:11:09.537Z,39.43
2018-11-28T01:13:37.841Z,37.83
2018-11-28T01:16:06.852Z,37.60
2018-11-28T01:18:35.129Z,38.17
2018-11-28T01:21:03.459Z,38.37
2018-11-28T01:23:31.792Z,40.07
2018-11-28T01:26:00.117Z,38.73
2018-11-28T01:28:28.408Z,39.10
2018-11-28T01:30:56.756Z,38.63
2018-11-28T01:33:25.113Z,40.53
2018-11-28T01:35:53.481Z,36.67
2018-11-28T01:38:21.823Z,38.67
2018-11-28T01:40:50.220Z,38.27
2018-11-28T01:43:18.524Z,40.10
2018-11-28T01:45:46.891Z,38.40
2018-11-28T01:48:15.251Z,39.47
2018-11-28T01:50:43.567Z,39.63
2018-11-28T01:53:11.900Z,40.70
2018-11-28T01:55:40.243Z,40.47
2018-11-28T01:58:08.571Z,40.37
2018-11-28T02:00:36.897Z,42.17
2018-11-28T02:03:05.263Z,39.03
2018-11-28T02:05:33.684Z,44.37
2018-11-28T02:08:02.105Z,39.47
2018-11-28T02:10:30.490Z,39.93
2018-11-28T02:12:58.889Z,38.20
2018-11-28T02:15:27.946Z,37.73
2018-11-28T02:17:57.256Z,40.20
2018-11-28T02:20:25.583Z,40.30
2018-11-28T02:22:54.023Z,43.93
2018-11-28T02:25:22.355Z,40.60
2018-11-28T02:27:50.768Z,39.10
2018-11-28T02:30:19.976Z,39.03
2018-11-28T02:32:49.223Z,39.90
2018-11-28T02:35:18.269Z,38.90
2018-11-28T02:37:46.735Z,41.50
2018-11-28T02:40:21.823Z,40.27
2018-11-28T02:42:50.680Z,35.20
2018-11-28T02:45:22.024Z,37.00
2018-11-28T02:47:50.997Z,39.53
2018-11-28T02:50:19.416Z,38.43
2018-11-28T02:52:47.759Z,39.83
2018-11-28T02:55:16.961Z,36.00
2018-11-28T02:57:46.367Z,40.33
2018-11-28T03:00:16.052Z,35.53
2018-11-28T03:02:44.482Z,40.00
2018-11-28T03:05:13.388Z,37.13
2018-11-28T03:07:41.780Z,38.57
2018-11-28T03:10:12.776Z,37.13
2018-11-28T03:12:41.156Z,39.97
2018-11-28T03:15:11.336Z,39.87
2018-11-28T03:17:39.782Z,36.67
2018-11-28T03:20:09.651Z,36.93
2018-11-28T03:22:38.051Z,38.43
2018-11-28T03:25:08.103Z,37.90
2018-11-28T03:27:36.464Z,38.00
2018-11-28T03:30:08.876Z,37.40
2018-11-28T03:32:37.209Z,35.60
2018-11-28T03:35:06.214Z,38.37
2018-11-28T03:37:34.545Z,38.70
2018-11-28T03:40:02.983Z,36.77
2018-11-28T03:42:31.457Z,38.77
2018-11-28T03:44:59.780Z,39.90
2018-11-28T03:47:28.117Z,39.03
2018-11-28T03:49:56.416Z,39.67
2018-11-28T03:52:24.755Z,39.00
2018-11-28T03:54:53.044Z,37.53
2018-11-28T03:57:21.449Z,36.53
2018-11-28T03:59:49.735Z,40.40
2018-11-28T04:02:18.070Z,39.77
2018-11-28T04:04:52.989Z,36.80
2018-11-28T04:07:21.354Z,40.33
2018-11-28T04:09:49.701Z,39.47
2018-11-28T04:12:18.172Z,39.37
2018-11-28T04:14:46.556Z,37.07
2018-11-28T04:17:14.897Z,37.07
2018-11-28T04:19:43.345Z,37.27
2018-11-28T04:22:11.678Z,37.03
2018-11-28T04:24:40.016Z,38.03
2018-11-28T04:27:08.463Z,38.20
2018-11-28T04:29:36.768Z,38.90
2018-11-28T04:32:05.138Z,42.67
2018-11-28T04:34:33.540Z,35.70
2018-11-28T04:37:01.887Z,37.43
2018-11-28T04:39:30.277Z,37.27
2018-11-28T04:41:58.626Z,40.53
2018-11-28T04:44:26.932Z,35.23
2018-11-28T04:46:56.316Z,39.17
2018-11-28T04:49:24.676Z,38.17
2018-11-28T04:51:53.026Z,37.77
2018-11-28T04:54:21.315Z,33.63
2018-11-28T04:56:49.627Z,35.20
2018-11-28T04:59:18.016Z,35.73
2018-11-28T05:01:46.400Z,34.13
2018-11-28T05:04:14.893Z,35.93
2018-11-28T05:07:47.596Z,34.20
2018-11-28T05:10:31.973Z,32.50
2018-11-28T05:13:00.823Z,35.07
2018-11-28T05:19:01.618Z,34.13
2018-11-28T05:21:35.335Z,37.43
2018-11-28T05:24:09.572Z,32.70
2018-11-28T05:26:43.046Z,31.77
2018-11-28T05:29:15.234Z,34.27
2018-11-28T05:31:50.054Z,33.87
2018-11-28T05:34:18.397Z,31.70
2018-11-28T05:36:46.720Z,35.67
2018-11-28T05:39:15.026Z,32.90
2018-11-28T05:41:43.490Z,35.23
2018-11-28T05:44:11.877Z,34.53
2018-11-28T05:46:40.292Z,35.07
2018-11-28T05:49:08.589Z,32.37
2018-11-28T05:51:36.968Z,34.90
2018-11-28T05:54:05.405Z,33.87
2018-11-28T05:56:33.761Z,35.60
2018-11-28T05:59:03.442Z,33.03
2018-11-28T06:01:30.549Z,34.37
2018-11-28T06:03:58.972Z,33.47
2018-11-28T06:07:30.723Z,32.80
2018-11-28T06:09:59.461Z,37.97
2018-11-28T06:12:28.237Z,34.37
2018-11-28T06:14:56.801Z,32.50
2018-11-28T06:17:25.198Z,38.20
2018-11-28T06:19:53.597Z,37.87
2018-11-28T06:22:21.997Z,34.60
2018-11-28T06:24:50.451Z,34.97
2018-11-28T06:27:18.869Z,39.03
2018-11-28T06:29:47.418Z,36.23
2018-11-28T06:32:16.258Z,33.57
2018-11-28T06:34:44.597Z,34.97
2018-11-28T06:37:13.080Z,33.67
2018-11-28T06:39:41.773Z,36.10
2018-11-28T06:42:10.384Z,36.30
2018-11-28T06:44:39.651Z,37.20
2018-11-28T06:47:08.329Z,35.93
2018-11-28T06:49:37.459Z,35.83
2018-11-28T06:52:05.804Z,36.90
2018-11-28T06:54:34.106Z,38.03
2018-11-28T06:57:02.457Z,39.47
2018-11-28T06:59:30.755Z,39.20
2018-11-28T07:01:59.203Z,42.87
2018-11-28T07:04:27.716Z,38.93
2018-11-28T07:06:56.096Z,40.07
2018-11-28T07:09:24.426Z,37.80
2018-11-28T07:11:52.809Z,37.53
2018-11-28T07:14:21.130Z,38.60
2018-11-28T07:16:49.573Z,38.77
2018-11-28T07:19:18.002Z,36.57
2018-11-28T07:21:58.356Z,38.20
2018-11-28T07:24:27.345Z,39.23
2018-11-28T07:26:55.791Z,38.80
2018-11-28T07:29:24.259Z,37.10
2018-11-28T07:31:52.749Z,34.90
2018-11-28T07:34:21.193Z,38.87
2018-11-28T07:36:49.633Z,40.27
2018-11-28T07:39:17.989Z,40.73
2018-11-28T07:41:46.362Z,36.83
2018-11-28T07:44:14.811Z,38.83
2018-11-28T07:46:43.318Z,40.43
2018-11-28T07:49:11.690Z,40.13
2018-11-28T07:51:40.038Z,40.13
2018-11-28T07:54:09.640Z,39.77
2018-11-28T07:56:44.698Z,39.77
2018-11-28T07:59:20.703Z,41.37
2018-11-28T08:01:57.099Z,39.60
2018-11-28T08:04:29.001Z,40.23
2018-11-28T08:06:58.790Z,36.23
2018-11-28T08:09:32.206Z,37.77
2018-11-28T08:12:02.979Z,42.97
2018-11-28T08:14:36.785Z,43.07
2018-11-28T08:17:05.473Z,40.47
2018-11-28T08:19:36.209Z,40.83
2018-11-28T08:22:06.411Z,41.03
2018-11-28T08:24:39.228Z,39.97
2018-11-28T08:27:07.844Z,38.53
2018-11-28T08:29:36.369Z,39.70
2018-11-28T08:32:07.847Z,40.37
2018-11-28T08:34:36.253Z,40.07
2018-11-28T08:37:07.698Z,42.10
2018-11-28T08:39:40.664Z,40.70
2018-11-28T08:42:11.665Z,40.43
2018-11-28T08:44:40.067Z,36.83
2018-11-28T08:47:08.654Z,42.03
2018-11-28T08:49:37.196Z,36.87
2018-11-28T08:52:08.489Z,48.10
2018-11-28T08:54:37.788Z,43.50
2018-11-28T08:57:08.631Z,47.57
2018-11-28T09:01:03.473Z,45.23
2018-11-28T09:03:31.957Z,43.73
2018-11-28T09:06:03.363Z,46.33
2018-11-28T09:08:32.447Z,40.70
2018-11-28T09:11:01.090Z,42.93
2018-11-28T09:13:30.718Z,45.30
2018-11-28T09:16:00.149Z,48.73
2018-11-28T09:18:28.543Z,48.40
2018-11-28T09:20:57.197Z,48.70
2018-11-28T09:23:26.119Z,50.23
2018-11-28T09:25:54.550Z,45.57
2018-11-28T09:28:23.065Z,46.20
2018-11-28T09:30:51.716Z,44.83
2018-11-28T09:33:20.534Z,44.07
2018-11-28T09:35:50.165Z,41.80
2018-11-28T09:38:18.769Z,41.00
2018-11-28T09:40:47.233Z,43.00
2018-11-28T09:43:15.644Z,41.17
2018-11-28T09:45:44.123Z,39.00
2018-11-28T09:48:13.108Z,39.87
2018-11-28T09:50:42.765Z,40.53
2018-11-28T09:53:12.050Z,40.53
2018-11-28T09:55:42.650Z,35.47
2018-11-28T09:58:11.227Z,32.40
2018-11-28T10:00:40.896Z,48.63
2018-11-28T10:03:09.281Z,39.00
2018-11-28T10:05:39.065Z,38.57
2018-11-28T10:08:07.575Z,37.87
2018-11-28T10:10:37.304Z,37.27
2018-11-28T10:13:07.762Z,39.10
2018-11-28T10:15:36.262Z,35.27
2018-11-28T10:18:06.485Z,35.30
2018-11-28T10:20:34.937Z,36.73
2018-11-28T10:23:04.223Z,39.23
2018-11-28T10:25:33.291Z,36.10
2018-11-28T10:28:05.680Z,34.07
2018-11-28T10:30:40.315Z,36.10
2018-11-28T10:33:13.407Z,37.67
2018-11-28T10:35:42.730Z,55.27
2018-11-28T10:38:16.586Z,37.97
2018-11-28T10:40:46.168Z,38.47
2018-11-28T10:43:14.839Z,38.50
2018-11-28T10:45:46.329Z,36.70
2018-11-28T10:48:15.717Z,37.67
2018-11-28T10:50:49.642Z,36.33
2018-11-28T10:53:18.425Z,37.70
2018-11-28T10:55:47.250Z,38.40
2018-11-28T10:58:16.733Z,37.60
2018-11-28T11:00:52.995Z,38.43
2018-11-28T11:03:26.534Z,35.40
2018-11-28T11:06:00.241Z,38.00
2018-11-28T11:08:32.718Z,36.20
2018-11-28T11:11:06.647Z,32.13
2018-11-28T11:13:41.733Z,36.83
2018-11-28T11:16:10.170Z,36.23
2018-11-28T11:18:39.926Z,31.60
2018-11-28T11:21:08.373Z,40.27
2018-11-28T11:23:36.789Z,35.03
2018-11-28T11:26:06.367Z,32.20
2018-11-28T11:28:34.896Z,33.97
2018-11-28T11:31:03.630Z,33.03
2018-11-28T11:33:32.050Z,31.83
2018-11-28T11:36:00.551Z,37.43
2018-11-28T11:38:28.904Z,30.33
2018-11-28T11:40:58.104Z,33.10
2018-11-28T11:43:26.927Z,33.17
2018-11-28T11:45:55.959Z,34.87
2018-11-28T11:48:26.437Z,30.03
2018-11-28T11:50:55.731Z,33.27
2018-11-28T11:53:24.923Z,29.13
2018-11-28T11:55:53.842Z,31.17
2018-11-28T11:58:22.229Z,33.00
2018-11-28T12:00:50.619Z,31.53
2018-11-28T12:03:19.084Z,32.23
2018-11-28T12:05:51.821Z,30.17
2018-11-28T12:08:23.397Z,29.57
2018-11-28T12:10:54.761Z,31.63
2018-11-28T12:13:25.132Z,30.40
2018-11-28T12:16:02.012Z,31.03
2018-11-28T12:18:53.361Z,29.20
2018-11-28T12:21:46.231Z,30.03
2018-11-28T12:24:15.561Z,27.63
2018-11-28T12:26:44.034Z,31.67
2018-11-28T12:29:14.598Z,27.93
2018-11-28T12:31:44.877Z,30.47
2018-11-28T12:34:19.330Z,28.47
2018-11-28T12:36:47.954Z,30.20
2018-11-28T12:39:17.945Z,28.67
2018-11-28T12:41:51.621Z,28.87
2018-11-28T12:44:21.909Z,27.87
2018-11-28T12:46:50.272Z,26.43
2018-11-28T12:49:18.703Z,28.03
2018-11-28T12:51:53.880Z,29.00
2018-11-28T12:54:23.279Z,28.73
2018-11-28T12:56:58.646Z,29.57
2018-11-28T12:59:26.975Z,29.37
2018-11-28T13:01:56.430Z,30.20
2018-11-28T13:04:32.150Z,30.67
2018-11-28T13:07:11.245Z,31.30
2018-11-28T13:09:39.615Z,30.43
2018-11-28T13:12:07.927Z,31.00
2018-11-28T13:14:36.220Z,32.47
2018-11-28T13:17:06.072Z,31.87
2018-11-28T13:19:34.530Z,30.33
2018-11-28T13:22:02.916Z,50.03
2018-11-28T13:24:31.172Z,39.03
2018-11-28T13:26:59.614Z,38.47
2018-11-28T13:29:28.171Z,34.60
2018-11-28T13:31:56.500Z,31.50
2018-11-28T13:34:24.891Z,31.40
2018-11-28T13:36:53.184Z,32.33
2018-11-28T13:39:22.124Z,29.40
2018-11-28T13:41:50.540Z,28.83
2018-11-28T13:44:18.831Z,29.97
2018-11-28T13:46:52.514Z,29.80
2018-11-28T13:49:20.903Z,31.67
2018-11-28T13:51:49.199Z,30.03
2018-11-28T13:54:21.353Z,30.00
2018-11-28T13:57:04.689Z,30.80
2018-11-28T13:59:15.959Z,30.60
2018-11-28T14:01:45.578Z,30.27
2018-11-28T14:04:13.852Z,30.57
2018-11-28T14:06:42.225Z,28.23
2018-11-28T14:09:10.527Z,31.20
2018-11-28T14:11:39.885Z,29.03
2018-11-28T14:14:09.028Z,28.90
2018-11-28T14:16:37.308Z,29.67
2018-11-28T14:19:05.810Z,30.17
2018-11-28T14:21:34.211Z,31.03
2018-11-28T14:24:02.631Z,30.87
2018-11-28T14:26:31.288Z,28.77
2018-11-28T14:28:59.528Z,31.73
2018-11-28T14:31:27.811Z,26.40
2018-11-28T14:33:56.084Z,27.63
2018-11-28T14:36:24.429Z,29.50
2018-11-28T14:38:58.080Z,26.30
2018-11-28T14:41:26.409Z,30.97
2018-11-28T14:43:54.773Z,27.67
2018-11-28T14:46:23.057Z,27.20
2018-11-28T14:48:51.604Z,28.93
2018-11-28T14:51:19.884Z,28.40
2018-11-28T14:53:48.576Z,27.97
2018-11-28T14:56:16.484Z,29.07
2018-11-28T14:58:44.783Z,27.47
2018-11-28T15:01:13.047Z,29.50
2018-11-28T15:03:41.356Z,30.13
2018-11-28T15:06:12.488Z,29.40
2018-11-28T15:08:40.767Z,32.37
2018-11-28T15:11:11.006Z,31.43
2018-11-28T15:13:39.905Z,32.30
2018-11-28T15:16:08.255Z,33.87
2018-11-28T15:18:36.566Z,32.93
2018-11-28T15:21:05.352Z,30.93
2018-11-28T15:23:33.699Z,31.83
2018-11-28T15:26:02.015Z,31.50
2018-11-28T15:28:30.384Z,34.03
2018-11-28T15:30:58.863Z,34.57
2018-11-28T15:33:27.401Z,33.37
2018-11-28T15:35:55.792Z,36.10
2018-11-28T15:38:24.193Z,36.90
2018-11-28T15:40:52.512Z,35.07
2018-11-28T15:43:27.570Z,34.83
2018-11-28T15:45:55.862Z,35.77
2018-11-28T15:48:24.150Z,36.23
2018-11-28T15:50:56.821Z,36.20
2018-11-28T15:53:25.155Z,33.00
2018-11-28T15:55:53.428Z,34.83
2018-11-28T15:58:21.700Z,34.00
2018-11-28T16:00:49.986Z,35.63
2018-11-28T16:03:19.101Z,34.53
2018-11-28T16:05:47.433Z,33.47
2018-11-28T16:08:15.756Z,34.57
2018-11-28T16:10:44.601Z,34.50
2018-11-28T16:13:14.608Z,31.33
2018-11-28T16:15:56.922Z,33.90
2018-11-28T16:18:25.247Z,33.87
2018-11-28T16:20:53.551Z,32.93
2018-11-28T16:23:21.992Z,37.20
2018-11-28T16:25:50.273Z,33.90
2018-11-28T16:28:18.789Z,32.47
2018-11-28T16:30:47.233Z,33.07
2018-11-28T16:33:15.559Z,33.63
2018-11-28T16:35:43.808Z,32.13
2018-11-28T16:38:12.220Z,34.07
2018-11-28T16:40:40.487Z,39.40
2018-11-28T16:43:08.774Z,37.23
2018-11-28T16:45:37.057Z,35.33
2018-11-28T16:48:05.819Z,40.48
2018-11-28T16:50:35.096Z,37.77
2018-11-28T16:53:03.474Z,32.67
2018-11-28T16:55:31.767Z,34.00
2018-11-28T16:58:00.266Z,32.53
2018-11-28T17:00:29.879Z,33.37
2018-11-28T17:02:58.332Z,34.90
2018-11-28T17:05:26.608Z,37.73
2018-11-28T17:07:54.966Z,33.37
2018-11-28T17:10:26.215Z,39.03
2018-11-28T17:12:55.104Z,32.93
2018-11-28T17:15:23.439Z,31.33
2018-11-28T17:17:51.744Z,32.77
2018-11-28T17:20:21.057Z,34.37
2018-11-28T17:22:50.306Z,31.10
2018-11-28T17:25:26.587Z,33.73
2018-11-28T17:27:54.969Z,34.67
2018-11-28T17:30:24.635Z,36.53
2018-11-28T17:32:52.993Z,33.20
2018-11-28T17:35:21.351Z,37.43
2018-11-28T17:37:49.672Z,30.83
2018-11-28T17:40:27.238Z,36.27
2018-11-28T17:42:56.659Z,33.40
2018-11-28T17:45:25.438Z,35.93
2018-11-28T17:47:53.825Z,35.87
2018-11-28T17:50:24.164Z,32.60
2018-11-28T17:52:56.514Z,33.13
2018-11-28T17:55:25.358Z,37.30
2018-11-28T17:57:53.650Z,32.87
2018-11-28T18:00:22.001Z,35.37
2018-11-28T18:02:50.359Z,30.67
2018-11-28T18:05:18.623Z,36.70
2018-11-28T18:07:46.942Z,35.47
2018-11-28T18:10:16.643Z,37.37
2018-11-28T18:12:56.155Z,36.07
2018-11-28T18:15:24.459Z,32.80
2018-11-28T18:17:54.845Z,35.83
2018-11-28T18:20:23.123Z,37.47
2018-11-28T18:22:51.436Z,35.87
2018-11-28T18:25:19.953Z,38.33
2018-11-28T18:27:48.280Z,32.23
2018-11-28T18:30:16.580Z,35.47
2018-11-28T18:32:45.500Z,39.10
2018-11-28T18:35:13.795Z,37.67
2018-11-28T18:37:42.062Z,38.33
2018-11-28T18:40:12.169Z,35.13
2018-11-28T18:42:41.339Z,42.97
2018-11-28T18:45:12.384Z,40.37
2018-11-28T18:47:40.684Z,37.07
2018-11-28T18:50:11.068Z,33.37
2018-11-28T18:52:40.247Z,35.87
2018-11-28T18:55:16.492Z,41.27
2018-11-28T18:57:40.951Z,35.50
2018-11-28T19:00:11.576Z,36.97
2018-11-28T19:02:40.455Z,34.13
2018-11-28T19:05:08.866Z,35.07
2018-11-28T19:07:37.143Z,32.53
2018-11-28T19:10:26.241Z,37.00
2018-11-28T19:12:52.474Z,34.90
2018-11-28T19:15:25.655Z,34.03
2018-11-28T19:17:54.667Z,31.17
2018-11-28T19:20:23.655Z,31.53
2018-11-28T19:22:53.872Z,34.83
2018-11-28T19:25:25.168Z,34.40
2018-11-28T19:27:53.643Z,33.07
2018-11-28T19:30:31.577Z,33.47
2018-11-28T19:33:00.126Z,33.40
2018-11-28T19:41:36.431Z,35.77
2018-11-28T19:44:23.555Z,34.53
2018-11-28T19:46:54.347Z,34.63
2018-11-28T19:49:22.907Z,31.33
2018-11-28T19:51:52.700Z,31.57
2018-11-28T19:54:21.443Z,30.90
2018-11-28T19:56:50.307Z,32.77
2018-11-28T19:59:18.902Z,34.00
2018-11-28T20:01:47.771Z,37.70
2018-11-28T20:04:16.288Z,33.50
2018-11-28T20:06:45.330Z,36.63
2018-11-28T20:09:21.527Z,33.67
2018-11-28T20:11:50.334Z,31.97
2018-11-28T20:14:18.730Z,33.67
2018-11-28T20:16:47.857Z,33.50
2018-11-28T20:19:17.660Z,37.50
2018-11-28T20:21:45.037Z,33.27
2018-11-28T20:24:13.664Z,32.37
2018-11-28T20:26:42.128Z,33.87
2018-11-28T20:29:11.057Z,36.13
2018-11-28T20:31:40.080Z,34.40
2018-11-28T20:34:09.071Z,32.77
2018-11-28T20:36:37.474Z,36.30
2018-11-28T20:39:09.003Z,31.90
2018-11-28T20:41:37.399Z,31.83
2018-11-28T20:44:06.202Z,32.47
2018-11-28T20:46:36.552Z,34.03
2018-11-28T20:49:05.781Z,32.23
2018-11-28T20:51:35.934Z,31.73
2018-11-28T20:54:04.610Z,31.10
2018-11-28T20:56:33.979Z,33.47
2018-11-28T20:59:02.906Z,33.37
2018-11-28T21:01:32.160Z,32.07
2018-11-28T21:04:00.620Z,34.93
2018-11-28T21:06:29.024Z,31.03
2018-11-28T21:08:57.824Z,32.43
2018-11-28T21:11:26.285Z,35.83
2018-11-28T21:13:54.775Z,31.40
2018-11-28T21:16:23.192Z,32.60
2018-11-28T21:18:51.999Z,35.57
2018-11-28T21:21:27.467Z,32.80
2018-11-28T21:23:53.295Z,32.13
2018-11-28T21:27:07.130Z,32.27
2018-11-28T21:29:36.874Z,31.37
2018-11-28T21:32:05.473Z,33.53
2018-11-28T21:34:34.525Z,31.27
2018-11-28T21:37:04.456Z,29.90
2018-11-28T21:39:32.796Z,30.37
2018-11-28T21:42:01.116Z,28.87
2018-11-28T21:44:29.807Z,32.90
2018-11-28T21:46:58.201Z,33.77
2018-11-28T21:49:26.831Z,32.37
2018-11-28T21:51:55.316Z,33.33
2018-11-28T21:54:24.238Z,33.30
2018-11-28T21:56:53.728Z,33.17
2018-11-28T21:59:22.168Z,34.10
2018-11-28T22:01:50.675Z,31.73
2018-11-28T22:04:19.456Z,32.17
2018-11-28T22:06:48.082Z,33.03
2018-11-28T22:09:17.047Z,31.57
2018-11-28T22:11:46.112Z,33.60
2018-11-28T22:14:14.613Z,29.37
2018-11-28T22:16:43.034Z,31.20
2018-11-28T22:19:11.444Z,32.77
2018-11-28T22:21:39.819Z,31.53
2018-11-28T22:24:08.225Z,33.70
2018-11-28T22:26:36.600Z,30.50
2018-11-28T22:29:05.089Z,32.70
2018-11-28T22:31:33.456Z,32.33
2018-11-28T22:34:01.831Z,30.37
2018-11-28T22:36:30.138Z,28.77
2018-11-28T22:38:58.467Z,28.80
2018-11-28T22:41:26.812Z,28.27
2018-11-28T22:43:55.262Z,31.33
2018-11-28T22:46:23.613Z,28.07
2018-11-28T22:48:52.103Z,30.40
2018-11-28T22:51:20.480Z,29.47
2018-11-28T22:53:49.146Z,28.20
2018-11-28T22:56:17.441Z,29.63
2018-11-28T22:58:46.061Z,28.00
2018-11-28T23:01:14.379Z,27.47
2018-11-28T23:03:42.869Z,29.60
2018-11-28T23:06:11.236Z,27.03
2018-11-28T23:08:39.733Z,28.47
2018-11-28T23:11:08.046Z,27.43
2018-11-28T23:13:36.351Z,32.93
2018-11-28T23:16:05.069Z,32.00
2018-11-28T23:18:33.731Z,29.93
2018-11-28T23:21:02.046Z,29.97
2018-11-28T23:23:30.420Z,28.80
2018-11-28T23:25:58.727Z,28.93
2018-11-28T23:28:27.092Z,30.37
2018-11-28T23:30:55.493Z,29.07
2018-11-28T23:33:23.814Z,28.80
2018-11-28T23:35:52.225Z,28.83
2018-11-28T23:38:20.544Z,29.63
2018-11-28T23:40:48.968Z,31.57
2018-11-28T23:43:17.593Z,27.37
2018-11-28T23:45:47.378Z,30.77
2018-11-28T23:48:15.692Z,29.03
2018-11-28T23:50:44.044Z,29.07
2018-11-28T23:53:12.488Z,30.90
2018-11-28T23:55:40.790Z,31.67
2018-11-28T23:58:09.214Z,31.97
